createdAt,value
2023-02-27T00:04:03.947Z,4.27
2023-02-27T00:09:26.115Z,5.60
2023-02-27T00:14:51.434Z,5.03
2023-02-27T00:20:16.779Z,5.20
2023-02-27T00:25:38.806Z,5.23
2023-02-27T00:31:04.734Z,5.20
2023-02-27T00:36:26.957Z,5.07
2023-02-27T00:41:49.042Z,4.97
2023-02-27T00:47:11.049Z,4.40
2023-02-27T00:52:34.851Z,5.10
2023-02-27T00:57:56.840Z,5.40
2023-02-27T01:03:18.841Z,4.57
2023-02-27T01:08:41.727Z,4.83
2023-02-27T01:14:03.817Z,4.77
2023-02-27T01:19:26.097Z,5.00
2023-02-27T01:24:48.112Z,5.00
2023-02-27T01:30:11.730Z,4.90
2023-02-27T01:35:33.709Z,4.60
2023-02-27T01:40:57.288Z,4.90
2023-02-27T01:46:24.055Z,4.40
2023-02-27T01:51:50.666Z,5.00
2023-02-27T01:57:12.658Z,4.80
2023-02-27T02:02:37.756Z,5.00
2023-02-27T02:08:07.731Z,5.30
2023-02-27T02:13:29.895Z,4.57
2023-02-27T02:19:20.631Z,4.70
2023-02-27T02:25:12.485Z,5.33
2023-02-27T02:30:55.443Z,4.60
2023-02-27T02:36:32.752Z,5.23
2023-02-27T02:42:05.844Z,6.20
2023-02-27T02:47:40.970Z,6.00
2023-02-27T02:53:18.095Z,5.73
2023-02-27T02:59:04.441Z,6.40
2023-02-27T03:05:01.370Z,6.40
2023-02-27T03:10:45.516Z,6.57
2023-02-27T03:16:18.344Z,5.80
2023-02-27T03:22:05.324Z,6.23
2023-02-27T03:27:32.049Z,5.13
2023-02-27T03:33:16.561Z,5.57
2023-02-27T03:38:48.679Z,5.77
2023-02-27T03:44:36.373Z,5.60
2023-02-27T03:49:59.029Z,5.53
2023-02-27T03:55:26.850Z,5.70
2023-02-27T04:00:49.519Z,5.80
2023-02-27T04:06:30.308Z,5.77
2023-02-27T04:12:32.386Z,5.90
2023-02-27T04:18:16.308Z,6.23
2023-02-27T04:23:50.069Z,6.07
2023-02-27T04:29:19.741Z,6.43
2023-02-27T04:34:53.195Z,6.80
2023-02-27T04:40:21.142Z,6.87
2023-02-27T04:45:45.609Z,6.27
2023-02-27T04:51:14.066Z,6.60
2023-02-27T04:56:44.133Z,6.50
2023-02-27T05:02:13.216Z,5.77
2023-02-27T05:08:02.386Z,6.20
2023-02-27T05:13:29.744Z,5.70
2023-02-27T05:18:51.751Z,6.27
2023-02-27T05:24:34.769Z,5.47
2023-02-27T05:30:00.820Z,4.43
2023-02-27T05:35:30.825Z,6.30
2023-02-27T05:41:01.235Z,5.83
2023-02-27T05:46:29.992Z,6.47
2023-02-27T05:51:54.933Z,5.53
2023-02-27T05:57:22.620Z,5.20
2023-02-27T06:02:45.234Z,5.20
2023-02-27T06:08:08.839Z,4.60
2023-02-27T06:13:31.118Z,4.67
2023-02-27T06:18:53.258Z,5.20
2023-02-27T06:24:17.665Z,4.87
2023-02-27T06:29:41.876Z,4.53
2023-02-27T06:35:06.545Z,5.30
2023-02-27T06:40:28.854Z,4.77
2023-02-27T06:45:56.103Z,5.13
2023-02-27T06:51:21.023Z,5.30
2023-02-27T06:56:45.268Z,4.60
2023-02-27T07:02:12.464Z,3.17
2023-02-27T07:07:38.238Z,2.50
2023-02-27T07:13:01.230Z,2.90
2023-02-27T07:18:25.686Z,1.90
2023-02-27T07:23:47.949Z,2.00
2023-02-27T07:29:10.040Z,2.10
2023-02-27T07:34:32.048Z,2.10
2023-02-27T07:39:56.374Z,2.03
2023-02-27T07:45:18.605Z,2.20
2023-02-27T07:50:40.648Z,1.57
2023-02-27T07:56:05.477Z,1.70
2023-02-27T08:01:27.446Z,1.77
2023-02-27T08:06:51.871Z,1.60
2023-02-27T08:12:16.197Z,1.70
2023-02-27T08:17:38.239Z,1.50
2023-02-27T08:23:00.540Z,1.60
2023-02-27T08:28:25.273Z,1.80
2023-02-27T08:34:00.810Z,1.33
2023-02-27T08:39:30.376Z,1.20
2023-02-27T08:44:54.915Z,1.87
2023-02-27T08:50:18.350Z,1.30
2023-02-27T08:55:40.589Z,1.33
2023-02-27T09:01:04.832Z,1.30
2023-02-27T09:06:26.900Z,1.50
2023-02-27T09:11:49.793Z,1.20
2023-02-27T09:17:11.991Z,1.23
2023-02-27T09:22:34.135Z,1.30
2023-02-27T09:27:59.036Z,1.30
2023-02-27T09:33:21.022Z,1.40
2023-02-27T09:38:43.397Z,1.23
2023-02-27T09:44:14.799Z,1.20
2023-02-27T09:49:48.304Z,1.20
2023-02-27T09:55:17.888Z,1.40
2023-02-27T10:00:45.921Z,1.23
2023-02-27T10:06:34.021Z,1.10
2023-02-27T10:12:29.413Z,1.33
2023-02-27T10:17:54.399Z,0.87
2023-02-27T10:23:23.369Z,1.00
2023-02-27T10:28:47.595Z,1.00
2023-02-27T10:34:14.868Z,1.00
2023-02-27T10:39:48.255Z,1.40
2023-02-27T10:45:17.201Z,0.93
2023-02-27T10:50:45.040Z,1.20
2023-02-27T10:56:10.673Z,0.90
2023-02-27T11:01:49.546Z,1.60
2023-02-27T11:07:14.324Z,1.20
2023-02-27T11:12:41.341Z,1.43
2023-02-27T11:18:22.136Z,1.00
2023-02-27T11:23:49.986Z,1.20
2023-02-27T11:29:19.013Z,1.23
2023-02-27T11:34:48.614Z,1.07
2023-02-27T11:40:12.779Z,1.20
2023-02-27T11:46:04.904Z,1.00
2023-02-27T11:51:46.840Z,1.17
2023-02-27T11:57:18.457Z,1.40
2023-02-27T12:03:01.944Z,0.90
2023-02-27T12:08:46.595Z,0.90
2023-02-27T12:14:10.534Z,0.90
2023-02-27T12:19:40.439Z,1.30
2023-02-27T12:25:08.326Z,1.10
2023-02-27T12:30:39.592Z,1.20
2023-02-27T12:36:03.129Z,0.97
2023-02-27T12:41:31.064Z,1.10
2023-02-27T12:47:25.115Z,1.10
2023-02-27T12:53:13.764Z,1.17
2023-02-27T12:59:06.095Z,1.30
2023-02-27T13:04:47.597Z,1.07
2023-02-27T13:10:22.270Z,1.33
2023-02-27T13:15:52.247Z,1.10
2023-02-27T13:21:24.265Z,1.10
2023-02-27T13:26:58.543Z,1.23
2023-02-27T13:32:41.612Z,1.30
2023-02-27T13:38:45.563Z,1.43
2023-02-27T13:44:19.807Z,1.00
2023-02-27T13:49:45.011Z,1.33
2023-02-27T13:55:27.734Z,1.03
2023-02-27T14:00:56.895Z,1.30
2023-02-27T14:06:21.655Z,1.40
2023-02-27T14:11:55.451Z,1.40
2023-02-27T14:17:41.079Z,1.50
2023-02-27T14:23:15.061Z,1.27
2023-02-27T14:28:56.455Z,1.30
2023-02-27T14:34:22.214Z,1.40
2023-02-27T14:39:44.765Z,1.20
2023-02-27T14:45:19.912Z,1.40
2023-02-27T14:50:42.504Z,1.27
2023-02-27T14:56:06.840Z,1.40
2023-02-27T15:01:35.367Z,1.20
2023-02-27T15:07:03.085Z,1.43
2023-02-27T15:12:28.115Z,2.00
2023-02-27T15:17:57.502Z,1.57
2023-02-27T15:23:26.002Z,1.10
2023-02-27T15:28:50.745Z,1.17
2023-02-27T15:34:15.536Z,1.47
2023-02-27T15:39:42.758Z,1.30
2023-02-27T15:45:08.080Z,1.10
2023-02-27T15:50:34.035Z,1.30
2023-02-27T15:56:02.009Z,1.67
2023-02-27T16:01:29.653Z,1.60
2023-02-27T16:07:02.089Z,1.50
2023-02-27T16:12:31.555Z,1.43
2023-02-27T16:18:08.552Z,1.57
2023-02-27T16:23:32.008Z,1.60
2023-02-27T16:28:54.027Z,1.50
2023-02-27T16:34:26.100Z,1.27
2023-02-27T16:39:52.448Z,1.40
2023-02-27T16:45:17.007Z,1.47
2023-02-27T16:50:41.474Z,1.60
2023-02-27T16:56:03.669Z,1.87
2023-02-27T17:01:28.870Z,1.83
2023-02-27T17:06:51.523Z,2.30
2023-02-27T17:12:13.862Z,1.47
2023-02-27T17:17:38.150Z,1.73
2023-02-27T17:23:00.301Z,2.50
2023-02-27T17:28:22.774Z,2.23
2023-02-27T17:33:44.877Z,1.20
2023-02-27T17:39:07.483Z,1.30
2023-02-27T17:44:29.815Z,2.40
2023-02-27T17:49:51.849Z,1.53
2023-02-27T17:55:15.856Z,2.90
2023-02-27T18:00:37.960Z,2.77
2023-02-27T18:06:05.163Z,3.37
2023-02-27T18:11:27.182Z,3.40
2023-02-27T18:16:52.264Z,2.40
2023-02-27T18:22:15.455Z,1.90
2023-02-27T18:27:40.356Z,2.23
2023-02-27T18:33:04.626Z,3.43
2023-02-27T18:38:29.314Z,2.37
2023-02-27T18:43:53.809Z,2.23
2023-02-27T18:49:15.906Z,2.13
2023-02-27T18:54:38.431Z,1.80
2023-02-27T19:00:03.418Z,3.23
2023-02-27T19:05:25.593Z,2.40
2023-02-27T19:10:47.670Z,1.93
2023-02-27T19:16:30.311Z,1.70
2023-02-27T19:21:53.598Z,1.97
2023-02-27T19:27:18.156Z,1.80
2023-02-27T19:32:40.363Z,1.60
2023-02-27T19:38:07.587Z,1.67
2023-02-27T19:43:31.894Z,1.50
2023-02-27T19:48:58.350Z,1.70
2023-02-27T19:54:20.446Z,1.80
2023-02-27T19:59:47.584Z,1.80
2023-02-27T20:05:12.130Z,1.97
2023-02-27T20:10:44.200Z,2.90
2023-02-27T20:16:08.506Z,1.57
2023-02-27T20:21:41.223Z,1.60
2023-02-27T20:27:07.245Z,1.90
2023-02-27T20:32:32.436Z,1.90
2023-02-27T20:37:54.527Z,1.67
2023-02-27T20:43:19.105Z,2.10
2023-02-27T20:48:41.759Z,4.17
2023-02-27T20:54:09.949Z,7.97
2023-02-27T20:59:32.342Z,7.73
2023-02-27T21:04:54.746Z,8.77
2023-02-27T21:10:20.015Z,4.57
2023-02-27T21:15:42.205Z,3.40
2023-02-27T21:21:13.253Z,7.10
2023-02-27T21:26:40.614Z,10.07
2023-02-27T21:32:08.628Z,8.20
2023-02-27T21:37:33.109Z,8.17
2023-02-27T21:42:55.494Z,8.47
2023-02-27T21:48:18.283Z,8.53
2023-02-27T21:53:40.503Z,9.30
2023-02-27T21:59:05.486Z,10.90
2023-02-27T22:04:27.476Z,10.77
2023-02-27T22:09:52.565Z,9.03
2023-02-27T22:15:14.797Z,7.87
2023-02-27T22:20:39.933Z,6.27
2023-02-27T22:26:07.948Z,5.73
2023-02-27T22:31:36.876Z,6.13
2023-02-27T22:37:01.205Z,5.20
2023-02-27T22:42:23.707Z,5.00
2023-02-27T22:47:45.795Z,5.30
2023-02-27T22:53:07.832Z,6.27
2023-02-27T22:58:37.132Z,3.83
2023-02-27T23:04:01.355Z,4.63
2023-02-27T23:09:28.541Z,4.60
2023-02-27T23:14:52.641Z,4.37
2023-02-27T23:20:14.807Z,4.03
2023-02-27T23:25:37.895Z,4.13
2023-02-27T23:31:02.117Z,4.00
2023-02-27T23:36:24.122Z,4.13
2023-02-27T23:41:46.139Z,4.40
2023-02-27T23:47:10.436Z,4.67
2023-02-27T23:52:32.521Z,4.50
2023-02-27T23:57:56.135Z,4.20
